Time;durP1;ratioP1;P1;durP2;ratioP2;P2;SDS_P1;SDS_P2;PMS_P1;PMS_P2;Temp;Humidity;BMP_temperature;BMP_pressure;BME280_temperature;BME280_humidity;BME280_pressure;Samples;Min_cycle;Max_cycle;Signal;HPM_P1;HPM_P2
2022/05/31 00:01:24;;;;;;;3.92;1.98;;;;;;;12.03;100.00;100355.22;5589664;31;34441;-70
2022/05/31 00:04:28;;;;;;;2.75;1.87;;;;;;;11.93;100.00;100351.97;5590207;31;33946;-70
2022/05/31 00:07:31;;;;;;;3.67;2.35;;;;;;;11.85;100.00;100346.72;5590164;31;34075;-69
2022/05/31 00:10:34;;;;;;;2.87;2.08;;;;;;;11.80;100.00;100338.47;5589271;31;32893;-69
2022/05/31 00:13:37;;;;;;;4.03;2.30;;;;;;;11.73;100.00;100337.50;5589983;31;34795;-69
2022/05/31 00:16:40;;;;;;;5.22;2.55;;;;;;;11.78;100.00;100340.47;5590134;31;34653;-69
2022/05/31 00:19:43;;;;;;;3.40;2.22;;;;;;;11.96;100.00;100346.31;5590081;31;34057;-70
2022/05/31 00:22:47;;;;;;;3.00;2.00;;;;;;;12.09;100.00;100337.75;5589221;31;34611;-69
2022/05/31 00:25:50;;;;;;;2.53;2.03;;;;;;;12.00;100.00;100346.78;5590098;31;34666;-69
2022/05/31 00:28:52;;;;;;;3.10;2.30;;;;;;;11.94;100.00;100344.84;5589135;31;35221;-69
2022/05/31 00:31:55;;;;;;;3.17;1.90;;;;;;;11.93;100.00;100351.97;5589834;31;34755;-69
2022/05/31 00:35:04;;;;;;;4.32;2.00;;;;;;;11.91;100.00;100353.97;5589949;31;34480;-70
2022/05/31 00:38:08;;;;;;;3.58;2.03;;;;;;;11.81;100.00;100366.69;5590002;31;33074;-69
2022/05/31 00:41:26;;;;;;;3.35;2.22;;;;;;;11.68;100.00;100363.75;5589777;31;33955;-69
2022/05/31 00:44:29;;;;;;;5.05;2.28;;;;;;;11.70;100.00;100367.88;5589765;31;34857;-69
2022/05/31 00:47:33;;;;;;;3.65;1.92;;;;;;;11.87;100.00;100373.13;5589956;31;34591;-69
2022/05/31 00:50:57;;;;;;;4.45;1.90;;;;;;;11.83;100.00;100377.13;5590347;31;34611;-69
2022/05/31 00:54:03;;;;;;;3.53;2.10;;;;;;;11.68;100.00;100379.69;5589843;31;34199;-69
2022/05/31 00:57:06;;;;;;;3.08;1.80;;;;;;;11.69;100.00;100384.00;5589817;31;35247;-69
2022/05/31 01:00:15;;;;;;;4.90;2.00;;;;;;;11.90;100.00;100380.75;5589797;31;34638;-70
2022/05/31 01:03:20;;;;;;;2.50;1.77;;;;;;;11.84;100.00;100384.12;5589733;31;34707;-70
2022/05/31 01:06:23;;;;;;;5.18;2.00;;;;;;;11.75;100.00;100386.84;5589726;31;34754;-69
2022/05/31 01:09:28;;;;;;;4.75;1.90;;;;;;;11.59;100.00;100381.56;5590056;31;33937;-69
2022/05/31 01:12:43;;;;;;;3.80;1.77;;;;;;;11.49;100.00;100386.25;5589918;31;34047;-68
2022/05/31 01:16:02;;;;;;;3.35;1.80;;;;;;;11.34;100.00;100394.13;5589634;31;34928;-69
2022/05/31 01:19:55;;;;;;;3.08;2.00;;;;;;;11.28;100.00;100400.13;5588622;31;33157;-70
2022/05/31 01:22:51;;;;;;;3.00;1.77;;;;;;;11.19;100.00;100409.13;5589615;31;34510;-70
2022/05/31 01:26:14;;;;;;;3.80;2.17;;;;;;;11.08;100.00;100404.19;5588898;31;33922;-69
2022/05/31 01:29:27;;;;;;;3.40;2.17;;;;;;;11.02;100.00;100414.66;5589458;31;34627;-70
2022/05/31 01:32:40;;;;;;;3.62;2.10;;;;;;;11.40;100.00;100411.22;5589284;31;34666;-69
2022/05/31 01:35:43;;;;;;;3.28;2.22;;;;;;;11.63;100.00;100408.59;5588582;31;34721;-69
2022/05/31 01:38:55;;;;;;;4.50;2.47;;;;;;;11.74;100.00;100418.88;5589700;31;34642;-70
2022/05/31 01:42:09;;;;;;;2.40;2.05;;;;;;;11.83;100.00;100417.00;5589310;31;35307;-69
2022/05/31 01:45:26;;;;;;;3.97;2.30;;;;;;;11.56;100.00;100412.97;5589221;31;34362;-69
2022/05/31 01:48:30;;;;;;;3.92;2.17;;;;;;;11.50;100.00;100419.81;5589182;31;34502;-70
2022/05/31 01:51:36;;;;;;;5.18;2.12;;;;;;;11.48;100.00;100428.94;5589191;31;33939;-70
2022/05/31 01:54:39;;;;;;;4.40;1.80;;;;;;;11.26;100.00;100415.41;5589202;31;33939;-69
2022/05/31 01:57:48;;;;;;;5.32;2.25;;;;;;;11.12;100.00;100425.91;5589283;31;34286;-69
2022/05/31 02:00:52;;;;;;;3.15;2.22;;;;;;;11.08;100.00;100427.25;5589316;31;34379;-70
2022/05/31 02:03:55;;;;;;;3.60;2.40;;;;;;;11.31;100.00;100426.34;5588998;31;34070;-70
2022/05/31 02:07:11;;;;;;;3.90;2.30;;;;;;;11.26;100.00;100434.00;5589080;31;34301;-70
2022/05/31 02:10:15;;;;;;;3.03;2.30;;;;;;;11.36;100.00;100425.84;5589011;31;34341;-70
2022/05/31 02:13:18;;;;;;;3.55;2.20;;;;;;;11.18;100.00;100425.25;5589177;31;33897;-69
2022/05/31 02:16:22;;;;;;;5.18;2.17;;;;;;;10.98;100.00;100423.97;5588827;31;34066;-70
2022/05/31 02:19:32;;;;;;;4.03;2.20;;;;;;;10.93;100.00;100431.59;5588581;31;34214;-70
2022/05/31 02:22:35;;;;;;;4.78;2.30;;;;;;;10.87;100.00;100431.28;5588734;31;33987;-69
2022/05/31 02:25:38;;;;;;;4.53;2.30;;;;;;;10.85;100.00;100437.72;5588498;31;34651;-70
2022/05/31 02:28:41;;;;;;;3.95;2.30;;;;;;;10.82;100.00;100430.13;5583041;31;169294;-70
2022/05/31 02:31:46;;;;;;;2.97;2.10;;;;;;;10.75;100.00;100435.25;5587622;31;33976;-70
2022/05/31 02:34:50;;;;;;;2.10;1.85;;;;;;;10.73;100.00;100439.09;5588485;31;33941;-70
2022/05/31 02:37:55;;;;;;;4.95;2.33;;;;;;;10.65;100.00;100439.09;5588765;31;34006;-70
2022/05/31 02:40:58;;;;;;;4.03;2.42;;;;;;;10.57;100.00;100437.25;5588353;31;34638;-70
2022/05/31 02:44:02;;;;;;;3.22;2.22;;;;;;;10.49;100.00;100439.09;5587454;31;33957;-69
2022/05/31 02:47:07;;;;;;;3.15;2.10;;;;;;;10.43;100.00;100437.94;5589732;31;33956;-70
2022/05/31 02:50:11;;;;;;;4.70;2.28;;;;;;;10.35;100.00;100446.72;5590821;31;34180;-70
2022/05/31 02:53:13;;;;;;;5.00;2.47;;;;;;;10.33;100.00;100443.41;5590875;31;34101;-70
2022/05/31 02:56:16;;;;;;;3.10;2.05;;;;;;;10.28;100.00;100447.53;5591042;31;34002;-70
2022/05/31 02:59:21;;;;;;;4.70;2.85;;;;;;;10.27;100.00;100441.38;5591313;31;33968;-70
2022/05/31 03:02:27;;;;;;;5.50;3.10;;;;;;;10.26;100.00;100447.69;5591149;31;34084;-70
2022/05/31 03:05:36;;;;;;;5.03;3.47;;;;;;;10.25;100.00;100447.88;5591131;31;33551;-69
2022/05/31 03:08:40;;;;;;;4.93;3.53;;;;;;;10.27;100.00;100448.50;5590045;31;33878;-70
2022/05/31 03:11:55;;;;;;;5.00;3.37;;;;;;;10.30;100.00;100443.72;5591027;31;34690;-70
2022/05/31 03:15:06;;;;;;;7.62;4.22;;;;;;;10.27;100.00;100448.50;5590672;31;34765;-70
2022/05/31 03:18:15;;;;;;;8.75;4.25;;;;;;;10.26;100.00;100452.19;5590231;31;34451;-69
2022/05/31 03:21:28;;;;;;;7.30;4.45;;;;;;;10.24;100.00;100448.84;5590500;31;34079;-70
2022/05/31 03:24:42;;;;;;;5.95;4.00;;;;;;;10.22;100.00;100446.34;5590513;31;34028;-69
2022/05/31 03:27:46;;;;;;;6.78;4.30;;;;;;;10.27;100.00;100446.69;5590413;31;34168;-70
2022/05/31 03:30:49;;;;;;;9.43;4.80;;;;;;;10.25;100.00;100445.22;5590511;31;34362;-70
2022/05/31 03:33:55;;;;;;;6.47;4.82;;;;;;;10.26;100.00;100434.41;5590456;31;34709;-70
2022/05/31 03:36:58;;;;;;;9.15;4.70;;;;;;;10.33;100.00;100437.25;5590487;31;33944;-70
2022/05/31 03:40:01;;;;;;;5.75;4.80;;;;;;;10.44;100.00;100437.78;5590393;31;35208;-70
2022/05/31 03:43:04;;;;;;;7.20;5.10;;;;;;;10.54;100.00;100431.47;5590795;31;33934;-70
2022/05/31 03:46:15;;;;;;;7.10;4.95;;;;;;;10.64;100.00;100435.62;5590386;31;34552;-71
2022/05/31 03:49:20;;;;;;;9.45;5.05;;;;;;;10.76;100.00;100436.09;5590414;31;34717;-71
2022/05/31 03:52:23;;;;;;;6.57;4.62;;;;;;;10.86;100.00;100440.22;5590206;31;34237;-70
2022/05/31 03:55:26;;;;;;;6.78;4.68;;;;;;;10.98;100.00;100447.84;5590615;31;34373;-71
2022/05/31 03:58:29;;;;;;;7.37;4.70;;;;;;;11.06;100.00;100448.66;5589180;31;34432;-71
2022/05/31 04:01:32;;;;;;;5.45;4.57;;;;;;;11.16;100.00;100451.97;5590191;31;34013;-71
2022/05/31 04:04:36;;;;;;;5.37;4.28;;;;;;;11.26;100.00;100449.94;5589476;31;33902;-71
2022/05/31 04:07:39;;;;;;;6.80;3.50;;;;;;;11.40;100.00;100452.88;5590022;31;34049;-71
2022/05/31 04:10:43;;;;;;;5.80;4.37;;;;;;;11.54;100.00;100449.50;5590169;31;33985;-71
2022/05/31 04:13:46;;;;;;;6.55;3.20;;;;;;;11.69;100.00;100461.06;5590243;31;34681;-71
2022/05/31 04:16:51;;;;;;;5.07;2.67;;;;;;;11.70;100.00;100466.22;5590160;31;34311;-71
2022/05/31 04:19:53;;;;;;;3.65;2.45;;;;;;;12.10;100.00;100465.19;5590158;31;34619;-71
2022/05/31 04:23:57;;;;;;;5.18;2.75;;;;;;;12.14;100.00;100468.34;5589513;31;34810;-71
2022/05/31 04:26:31;;;;;;;5.78;2.95;;;;;;;12.19;100.00;100458.84;5590112;31;32709;-71
2022/05/31 04:29:35;;;;;;;3.78;2.40;;;;;;;12.29;100.00;100460.44;5590201;31;32975;-71
2022/05/31 04:32:39;;;;;;;5.82;3.10;;;;;;;12.44;100.00;100466.66;5590216;31;33391;-71
2022/05/31 04:35:42;;;;;;;5.05;3.08;;;;;;;12.58;100.00;100464.06;5589208;31;34380;-71
2022/05/31 04:38:45;;;;;;;5.43;3.17;;;;;;;12.68;100.00;100461.16;5590252;31;34622;-71
2022/05/31 04:41:48;;;;;;;4.20;3.35;;;;;;;12.77;100.00;100465.38;5590174;31;34018;-71
2022/05/31 04:44:53;;;;;;;6.15;3.15;;;;;;;12.79;100.00;100459.88;5589798;31;34623;-71
2022/05/31 04:47:56;;;;;;;4.65;3.00;;;;;;;12.84;100.00;100462.81;5589263;31;32488;-72
2022/05/31 04:50:58;;;;;;;3.60;3.03;;;;;;;13.08;100.00;100462.56;5589248;31;34511;-71
2022/05/31 04:54:03;;;;;;;5.03;3.20;;;;;;;13.20;100.00;100461.16;5588388;31;32560;-71
2022/05/31 04:57:08;;;;;;;6.43;3.25;;;;;;;13.26;100.00;100462.28;5590016;31;34639;-70
2022/05/31 05:00:12;;;;;;;3.55;3.00;;;;;;;13.38;100.00;100471.47;5589781;31;33911;-70
2022/05/31 05:03:17;;;;;;;7.10;3.75;;;;;;;13.47;99.97;100471.19;5589621;31;34625;-71
2022/05/31 05:06:22;;;;;;;7.35;3.50;;;;;;;13.55;99.40;100464.94;5589503;31;34005;-70
2022/05/31 05:09:25;;;;;;;4.25;3.30;;;;;;;13.71;98.68;100463.91;5588371;31;34661;-71
2022/05/31 05:12:29;;;;;;;6.12;3.50;;;;;;;13.78;96.75;100452.31;5589724;31;34662;-70
2022/05/31 05:15:33;;;;;;;5.35;3.70;;;;;;;13.88;95.45;100450.19;5589054;31;34417;-71
2022/05/31 05:18:36;;;;;;;5.50;3.45;;;;;;;13.80;96.96;100455.59;5589431;31;33977;-70
2022/05/31 05:21:39;;;;;;;8.93;3.95;;;;;;;13.70;97.87;100467.59;5588979;31;34068;-70
2022/05/31 05:24:42;;;;;;;6.55;3.60;;;;;;;13.99;94.69;100459.53;5589064;31;34245;-70
2022/05/31 05:27:46;;;;;;;5.07;3.95;;;;;;;14.10;92.95;100459.03;5589360;31;34031;-70
2022/05/31 05:30:49;;;;;;;6.70;3.90;;;;;;;14.02;94.24;100455.66;5589200;31;33980;-71
2022/05/31 05:34:03;;;;;;;5.82;3.85;;;;;;;13.99;92.49;100467.53;5589170;31;34071;-71
2022/05/31 05:37:06;;;;;;;6.25;3.58;;;;;;;14.11;91.69;100465.19;5588950;31;34123;-71
2022/05/31 05:40:09;;;;;;;5.00;3.83;;;;;;;14.36;90.01;100466.53;5589143;31;34702;-71
2022/05/31 05:43:13;;;;;;;7.55;3.60;;;;;;;14.46;88.38;100469.72;5588811;31;35204;-70
2022/05/31 05:46:21;;;;;;;6.87;4.20;;;;;;;14.69;88.66;100469.50;5588728;31;34217;-70
2022/05/31 05:49:25;;;;;;;6.53;4.32;;;;;;;14.61;86.65;100461.66;5588820;31;34404;-71
2022/05/31 05:52:29;;;;;;;6.10;4.43;;;;;;;14.71;86.37;100465.66;5588770;31;33828;-70
2022/05/31 05:55:41;;;;;;;5.55;3.87;;;;;;;14.66;86.15;100460.06;5588151;31;33005;-70
2022/05/31 05:58:50;;;;;;;5.93;4.60;;;;;;;14.85;85.54;100469.25;5588107;31;34628;-70
2022/05/31 06:02:03;;;;;;;6.87;5.12;;;;;;;15.10;83.97;100465.09;5588790;31;32957;-70
2022/05/31 06:05:26;;;;;;;4.82;4.10;;;;;;;15.22;83.85;100476.09;5588831;31;33980;-71
2022/05/31 06:08:54;;;;;;;5.62;4.00;;;;;;;15.32;83.19;100471.22;5588086;31;34387;-71
2022/05/31 06:12:11;;;;;;;6.37;3.78;;;;;;;15.39;81.96;100471.28;5587866;31;34099;-71
2022/05/31 06:15:21;;;;;;;5.70;4.00;;;;;;;15.79;81.86;100473.12;5587473;31;32413;-71
2022/05/31 06:19:01;;;;;;;4.62;3.30;;;;;;;15.76;81.70;100475.41;5588060;31;34005;-71
2022/05/31 06:22:06;;;;;;;6.55;2.75;;;;;;;15.96;78.00;100471.78;5588672;31;33665;-71
2022/05/31 06:25:13;;;;;;;4.75;2.75;;;;;;;16.05;77.90;100475.94;5590707;31;34529;-71
2022/05/31 06:28:17;;;;;;;2.78;2.20;;;;;;;16.12;77.73;100475.94;5590719;31;34869;-71
2022/05/31 06:31:20;;;;;;;7.70;2.65;;;;;;;16.36;75.01;100478.06;5590087;31;35174;-71
2022/05/31 06:34:24;;;;;;;5.70;2.83;;;;;;;16.51;72.56;100478.69;5589774;31;34287;-70
2022/05/31 06:37:30;;;;;;;3.75;2.30;;;;;;;16.47;73.51;100480.16;5590204;31;34694;-71
2022/05/31 06:40:33;;;;;;;3.22;2.30;;;;;;;16.61;72.63;100481.00;5590663;31;35169;-71
2022/05/31 06:43:39;;;;;;;4.00;2.03;;;;;;;16.67;71.51;100490.91;5590645;31;34656;-71
2022/05/31 06:46:52;;;;;;;3.55;2.25;;;;;;;16.90;70.21;100488.66;5590273;31;33988;-71
2022/05/31 06:49:56;;;;;;;3.80;2.40;;;;;;;16.97;70.99;100491.34;5590623;31;33854;-71
2022/05/31 06:59:52;;;;;;;3.20;2.22;;;;;;;17.57;65.55;100497.47;5590904;31;34477;-70
2022/05/31 07:02:55;;;;;;;4.25;2.40;;;;;;;17.70;65.37;100494.78;5590034;31;32558;-71
2022/05/31 07:05:59;;;;;;;2.37;1.83;;;;;;;17.70;68.06;100500.97;5589821;31;34086;-71
2022/05/31 07:09:02;;;;;;;3.10;2.05;;;;;;;17.96;64.54;100491.19;5590840;31;34698;-71
2022/05/31 07:12:06;;;;;;;5.43;2.17;;;;;;;18.07;65.42;100496.69;5590872;31;34308;-72
2022/05/31 07:15:11;;;;;;;2.75;1.83;;;;;;;18.58;63.12;100487.75;5590376;31;35285;-70
2022/05/31 07:18:18;;;;;;;4.70;1.87;;;;;;;18.65;59.98;100486.66;5590698;31;33958;-71
2022/05/31 07:21:21;;;;;;;3.92;1.98;;;;;;;18.65;60.62;100480.44;5589465;31;32413;-70
2022/05/31 07:24:25;;;;;;;3.70;1.70;;;;;;;18.66;59.22;100480.25;5589641;31;34030;-70
2022/05/31 07:27:30;;;;;;;2.42;1.60;;;;;;;19.01;60.47;100485.97;5590559;31;34029;-71
2022/05/31 07:30:34;;;;;;;4.72;1.60;;;;;;;19.17;58.05;100489.16;5590404;31;34209;-71
2022/05/31 07:33:38;;;;;;;2.78;1.58;;;;;;;19.93;54.68;100500.34;5590336;31;34555;-70
2022/05/31 07:36:43;;;;;;;6.87;1.70;;;;;;;20.88;52.87;100495.09;5590376;31;35340;-71
2022/05/31 07:39:48;;;;;;;3.20;1.30;;;;;;;21.45;50.70;100497.00;5590507;31;33987;-71
2022/05/31 07:42:51;;;;;;;6.30;1.70;;;;;;;21.83;49.72;100490.28;5589105;31;34066;-71
2022/05/31 07:46:05;;;;;;;4.68;1.87;;;;;;;22.05;50.36;100488.59;5588980;31;32834;-72
2022/05/31 07:49:08;;;;;;;3.37;2.05;;;;;;;22.93;45.37;100494.28;5588949;31;32603;-72
2022/05/31 07:52:12;;;;;;;2.97;2.10;;;;;;;23.22;46.54;100495.00;5590032;31;34701;-71
2022/05/31 07:55:18;;;;;;;2.95;1.92;;;;;;;23.55;44.38;100490.63;5589223;31;32860;-72
2022/05/31 07:58:32;;;;;;;3.45;1.98;;;;;;;24.00;44.53;100499.34;5590203;31;34690;-72
2022/05/31 08:01:39;;;;;;;3.47;1.92;;;;;;;23.84;44.04;100505.66;5589653;31;34130;-72
2022/05/31 08:04:42;;;;;;;4.95;1.90;;;;;;;23.57;44.78;100507.47;5590128;31;34028;-72
2022/05/31 08:07:45;;;;;;;3.47;2.08;;;;;;;24.38;44.09;100503.06;5590360;31;35112;-70
2022/05/31 08:10:48;;;;;;;3.37;1.98;;;;;;;25.01;42.32;100500.41;5590154;31;33833;-72
2022/05/31 08:13:50;;;;;;;3.75;1.98;;;;;;;25.19;41.16;100498.34;5590017;31;34690;-68
2022/05/31 08:16:53;;;;;;;10.80;2.25;;;;;;;24.46;41.58;100499.88;5590342;31;34616;-72
2022/05/31 08:19:56;;;;;;;4.68;1.75;;;;;;;25.15;41.57;100505.37;5589251;31;32879;-72
2022/05/31 08:23:01;;;;;;;6.35;1.65;;;;;;;25.75;39.23;100505.81;5589872;31;33898;-72
2022/05/31 08:26:05;;;;;;;4.75;1.67;;;;;;;26.74;37.07;100511.00;5589810;31;33892;-72
2022/05/31 08:29:07;;;;;;;10.57;2.10;;;;;;;25.45;38.93;100494.72;5589826;31;34378;-72
2022/05/31 08:32:10;;;;;;;1.70;1.30;;;;;;;24.44;43.55;100502.84;5589376;31;34242;-71
2022/05/31 08:35:13;;;;;;;5.25;1.90;;;;;;;24.19;42.45;100510.72;5589736;31;34180;-70
2022/05/31 08:38:16;;;;;;;3.92;1.62;;;;;;;25.06;41.57;100503.16;5589666;31;34569;-70
2022/05/31 08:41:21;;;;;;;6.12;1.75;;;;;;;24.82;41.50;100515.41;5589385;31;34092;-70
2022/05/31 08:44:28;;;;;;;4.43;1.77;;;;;;;24.73;41.79;100508.00;5588802;31;33907;-70
2022/05/31 08:47:45;;;;;;;7.82;2.05;;;;;;;25.47;39.75;100503.41;5589559;31;33874;-71
2022/05/31 08:57:57;;;;;;;4.62;1.98;;;;;;;25.64;40.50;100506.00;5589473;31;34513;-69
2022/05/31 09:01:03;;;;;;;6.57;1.70;;;;;;;26.25;37.71;100501.66;5589419;31;33894;-71
2022/05/31 09:04:21;;;;;;;2.60;1.55;;;;;;;28.17;34.42;100504.25;5589340;31;34929;-71
2022/05/31 09:07:30;;;;;;;2.87;1.70;;;;;;;29.07;34.19;100492.94;5589152;31;35173;-70
2022/05/31 09:10:38;;;;;;;5.40;1.95;;;;;;;29.11;31.88;100500.28;5589784;31;34538;-69
2022/05/31 09:13:50;;;;;;;3.87;1.80;;;;;;;27.57;34.27;100503.34;5589522;31;33951;-70
2022/05/31 09:17:02;;;;;;;24.60;2.43;;;;;;;25.49;38.80;100488.50;5589412;31;34053;-70
2022/05/31 09:20:15;;;;;;;3.67;1.80;;;;;;;24.56;41.30;100487.22;5589026;31;34613;-69
2022/05/31 09:23:25;;;;;;;5.10;1.90;;;;;;;23.44;43.26;100486.09;5588196;31;33246;-69
2022/05/31 09:26:52;;;;;;;4.95;1.85;;;;;;;23.62;43.77;100485.88;5588763;31;33851;-70
2022/05/31 09:30:31;;;;;;;4.30;1.90;;;;;;;23.37;43.71;100489.00;5588731;31;33992;-69
2022/05/31 09:33:42;;;;;;;4.90;1.85;;;;;;;25.75;39.89;100483.25;5588626;31;33848;-69
2022/05/31 09:36:59;;;;;;;5.43;2.20;;;;;;;28.30;35.29;100495.41;5587690;31;32897;-70
2022/05/31 09:40:30;;;;;;;2.58;1.60;;;;;;;26.32;37.45;100488.63;5588085;31;33599;-71
2022/05/31 09:43:39;;;;;;;5.25;1.77;;;;;;;24.62;41.18;100488.91;5591150;31;34187;-68
2022/05/31 09:46:45;;;;;;;5.10;1.70;;;;;;;23.87;42.97;100488.09;5593265;31;33932;-70
2022/05/31 09:49:51;;;;;;;4.78;1.80;;;;;;;24.13;44.20;100487.28;5589362;31;35311;-71
2022/05/31 09:52:57;;;;;;;5.05;1.95;;;;;;;25.12;41.92;100484.19;5591732;31;33976;-70
2022/05/31 09:59:27;;;;;;;3.97;2.00;;;;;;;24.73;42.89;100478.16;5589206;31;34009;-70
2022/05/31 10:02:36;;;;;;;3.95;2.12;;;;;;;23.57;43.66;100478.50;5589155;31;33271;-71
2022/05/31 10:05:42;;;;;;;6.90;1.77;;;;;;;23.39;43.41;100474.13;5589211;31;34368;-71
2022/05/31 10:08:51;;;;;;;3.58;1.67;;;;;;;23.64;45.22;100475.59;5574991;31;32509;-70
2022/05/31 10:12:04;;;;;;;2.40;1.60;;;;;;;23.78;44.08;100474.13;5588771;31;34039;-70
2022/05/31 10:15:07;;;;;;;3.55;1.60;;;;;;;23.71;46.63;100473.53;5589091;31;34327;-70
2022/05/31 10:18:14;;;;;;;3.62;1.77;;;;;;;23.59;44.01;100465.50;5587479;31;33871;-70
2022/05/31 10:21:38;;;;;;;5.05;2.30;;;;;;;24.24;45.13;100461.97;5588631;31;34292;-70
2022/05/31 10:24:47;;;;;;;4.65;2.00;;;;;;;23.85;43.12;100463.94;5587976;31;32389;-70
2022/05/31 10:28:03;;;;;;;5.55;2.12;;;;;;;24.29;43.24;100466.63;5588775;31;34303;-69
2022/05/31 10:31:21;;;;;;;3.95;1.85;;;;;;;24.53;42.01;100455.22;5588314;31;34053;-71
2022/05/31 10:34:33;;;;;;;4.62;1.65;;;;;;;26.62;38.83;100463.38;5588329;31;33942;-71
2022/05/31 10:37:37;;;;;;;5.82;2.28;;;;;;;26.46;38.45;100457.09;5587989;31;34703;-70
2022/05/31 10:40:58;;;;;;;4.93;1.70;;;;;;;26.67;38.17;100457.94;5587916;31;34100;-71
2022/05/31 10:44:15;;;;;;;6.20;1.75;;;;;;;27.92;35.83;100466.97;5588136;31;34103;-70
2022/05/31 10:47:21;;;;;;;5.22;2.00;;;;;;;27.63;36.28;100460.53;5587904;31;34009;-70
2022/05/31 10:50:33;;;;;;;4.28;2.40;;;;;;;26.09;38.70;100461.88;5588043;31;34351;-70
2022/05/31 10:54:02;;;;;;;5.00;2.10;;;;;;;27.20;37.80;100464.72;5588172;31;34030;-70
2022/05/31 10:57:19;;;;;;;6.53;2.00;;;;;;;28.76;34.63;100452.25;5586692;31;32743;-70
2022/05/31 11:00:34;;;;;;;4.65;2.35;;;;;;;29.05;33.38;100454.19;5586991;31;32395;-67
2022/05/31 11:03:46;;;;;;;4.87;2.30;;;;;;;30.11;31.09;100461.97;5587783;31;34140;-68
2022/05/31 11:07:01;;;;;;;5.18;2.35;;;;;;;28.92;33.04;100459.22;5588489;31;35109;-70
2022/05/31 11:14:18;;;;;;;6.22;2.90;;;;;;;28.23;33.88;100464.91;5590339;31;34877;-71
2022/05/31 11:17:42;;;;;;;3.75;2.47;;;;;;;28.91;33.26;100446.66;5590568;31;34018;-69
2022/05/31 11:20:51;;;;;;;3.35;2.28;;;;;;;29.24;31.88;100442.22;5590171;31;34003;-68
2022/05/31 11:24:27;;;;;;;6.65;2.67;;;;;;;30.97;30.69;100437.91;5590187;31;34163;-70
2022/05/31 11:27:44;;;;;;;5.25;2.87;;;;;;;30.28;30.42;100436.84;5589985;31;33970;-69
2022/05/31 11:31:12;;;;;;;5.72;2.78;;;;;;;32.48;27.63;100435.91;5590457;31;34584;-68
2022/05/31 11:34:29;;;;;;;4.97;2.45;;;;;;;32.90;26.50;100435.41;5590327;31;34505;-69
2022/05/31 11:37:50;;;;;;;6.85;2.60;;;;;;;33.23;26.00;100430.41;5589592;31;33902;-70
2022/05/31 11:41:34;;;;;;;3.53;2.28;;;;;;;33.72;26.89;100431.22;5590644;31;34402;-68
2022/05/31 11:44:59;;;;;;;4.10;2.08;;;;;;;32.43;26.65;100430.53;5589945;31;34423;-68
2022/05/31 11:48:39;;;;;;;3.10;2.25;;;;;;;30.18;29.60;100415.09;5590297;31;34126;-69
2022/05/31 11:51:52;;;;;;;4.95;2.33;;;;;;;32.48;27.13;100422.16;5589860;31;33974;-70
2022/05/31 11:55:26;;;;;;;8.43;2.50;;;;;;;32.53;26.88;100424.78;5588905;31;34482;-70
2022/05/31 11:58:42;;;;;;;4.72;2.53;;;;;;;31.91;28.60;100419.87;5590084;31;34412;-71
2022/05/31 12:02:13;;;;;;;6.47;2.40;;;;;;;32.88;27.57;100415.66;5590127;31;33970;-70
2022/05/31 12:05:23;;;;;;;3.55;2.05;;;;;;;34.40;24.59;100414.78;5589815;31;34118;-69
2022/05/31 12:08:37;;;;;;;5.62;2.28;;;;;;;34.22;23.57;100410.44;5590268;31;34532;-69
2022/05/31 12:11:59;;;;;;;3.40;1.83;;;;;;;36.28;21.75;100413.47;5589348;31;33653;-69
2022/05/31 12:15:13;;;;;;;4.47;1.83;;;;;;;35.99;22.08;100406.06;5589457;31;32519;-70
2022/05/31 12:18:42;;;;;;;3.87;2.05;;;;;;;35.21;23.92;100401.00;5589145;31;34114;-71
2022/05/31 12:21:52;;;;;;;4.50;1.70;;;;;;;35.77;22.69;100404.44;5590079;31;34096;-68
2022/05/31 12:25:04;;;;;;;2.37;1.30;;;;;;;37.19;20.84;100390.25;5588719;31;32647;-70
2022/05/31 12:28:25;;;;;;;5.37;1.70;;;;;;;35.65;21.88;100383.09;5589410;31;34211;-70
2022/05/31 12:31:30;;;;;;;21.52;2.85;;;;;;;35.19;22.85;100386.75;5589232;31;33928;-70
2022/05/31 12:34:40;;;;;;;7.97;2.10;;;;;;;35.01;22.66;100385.16;5589098;31;34267;-69
2022/05/31 12:37:50;;;;;;;3.10;1.60;;;;;;;32.69;25.31;100376.59;5589481;31;34018;-70
2022/05/31 12:40:55;;;;;;;6.00;1.30;;;;;;;34.60;23.61;100368.41;5590042;31;34370;-70
2022/05/31 12:43:59;;;;;;;2.87;1.30;;;;;;;34.53;22.96;100363.38;5589164;31;33266;-69
2022/05/31 12:47:27;;;;;;;4.43;1.30;;;;;;;34.03;22.85;100363.13;5589634;31;33895;-70
2022/05/31 12:50:55;;;;;;;2.33;1.07;;;;;;;35.91;21.06;100369.09;5589788;31;34221;-70
2022/05/31 12:54:11;;;;;;;2.47;1.30;;;;;;;37.39;19.78;100356.91;5581845;31;34481;-71
2022/05/31 12:57:24;;;;;;;2.80;1.02;;;;;;;38.31;18.68;100347.00;5589832;31;34170;-70
2022/05/31 13:00:34;;;;;;;1.98;1.20;;;;;;;37.19;19.50;100357.84;5589808;31;34049;-69
2022/05/31 13:03:39;;;;;;;3.05;1.40;;;;;;;36.72;20.08;100353.88;5589699;31;33850;-68
2022/05/31 13:07:13;;;;;;;4.65;1.30;;;;;;;37.17;19.32;100353.84;5589409;31;35252;-69
2022/05/31 13:10:34;;;;;;;4.53;1.30;;;;;;;38.62;18.27;100353.44;5575492;31;32520;-69
2022/05/31 13:21:06;;;;;;;2.08;1.17;;;;;;;40.04;17.07;100328.22;5560340;31;35084;-70
2022/05/31 13:24:31;;;;;;;3.33;1.58;;;;;;;36.54;20.38;100318.13;5589282;31;34652;-70
2022/05/31 13:27:37;;;;;;;3.42;1.40;;;;;;;36.93;20.68;100315.88;5589164;31;34883;-69
2022/05/31 13:30:43;;;;;;;5.12;1.87;;;;;;;37.24;20.10;100316.13;5587887;31;33601;-69
2022/05/31 13:34:03;;;;;;;3.25;1.60;;;;;;;37.92;19.34;100313.44;5589274;31;33883;-69
2022/05/31 13:37:20;;;;;;;5.12;1.42;;;;;;;36.52;20.92;100303.84;5588019;31;33914;-70
2022/05/31 13:40:36;;;;;;;4.20;1.70;;;;;;;35.79;21.79;100302.75;5588137;31;32394;-68
2022/05/31 13:43:48;;;;;;;4.57;2.10;;;;;;;37.08;20.75;100295.88;5588070;31;32640;-67
2022/05/31 13:46:51;;;;;;;7.40;1.92;;;;;;;35.68;21.26;100310.63;5588199;31;33986;-70
2022/05/31 13:50:05;;;;;;;6.50;2.90;;;;;;;33.91;24.11;100292.19;5588228;31;33891;-70
2022/05/31 13:53:11;;;;;;;6.75;2.37;;;;;;;35.10;22.58;100299.66;5588719;31;34373;-68
2022/05/31 13:56:17;;;;;;;3.80;2.00;;;;;;;35.48;22.69;100296.81;5588185;31;32478;-69
2022/05/31 13:59:45;;;;;;;4.32;2.12;;;;;;;37.28;19.96;100302.38;5588119;31;33771;-69
2022/05/31 14:03:00;;;;;;;4.07;2.47;;;;;;;38.51;18.71;100302.44;5588636;31;35240;-69
2022/05/31 14:06:10;;;;;;;5.37;2.30;;;;;;;37.00;19.78;100297.56;5588560;31;34571;-70
2022/05/31 14:09:18;;;;;;;2.78;1.92;;;;;;;37.32;19.93;100286.72;5587516;31;33954;-69
2022/05/31 14:12:23;;;;;;;3.85;2.15;;;;;;;33.79;23.46;100285.72;5588590;31;33921;-68
2022/05/31 14:15:32;;;;;;;4.03;2.55;;;;;;;34.31;24.04;100278.22;5587752;31;32469;-69
2022/05/31 14:18:42;;;;;;;6.87;3.10;;;;;;;33.45;24.42;100272.75;5574701;31;32442;-70
2022/05/31 14:21:46;;;;;;;5.28;2.25;;;;;;;30.57;28.96;100267.75;5587169;31;33223;-69
2022/05/31 14:24:53;;;;;;;3.92;2.30;;;;;;;29.18;30.92;100265.81;5587037;31;32665;-68
2022/05/31 14:27:55;;;;;;;4.97;2.60;;;;;;;28.23;32.19;100259.47;5587837;31;33984;-68
2022/05/31 14:31:01;;;;;;;4.50;2.53;;;;;;;28.14;33.75;100259.28;5587516;31;34899;-69
2022/05/31 14:34:09;;;;;;;3.20;2.40;;;;;;;28.67;31.88;100257.37;5587067;31;34159;-70
2022/05/31 14:37:24;;;;;;;5.10;2.40;;;;;;;29.26;30.98;100253.41;5587392;31;34782;-70
2022/05/31 14:40:31;;;;;;;5.25;2.47;;;;;;;31.62;27.70;100248.56;5587896;31;35215;-69
2022/05/31 14:43:55;;;;;;;7.68;2.10;;;;;;;34.45;24.51;100254.84;5589150;31;33907;-69
2022/05/31 14:47:28;;;;;;;6.12;2.22;;;;;;;34.74;23.62;100243.06;5589859;31;34021;-67
2022/05/31 14:50:32;;;;;;;3.80;1.83;;;;;;;34.61;23.77;100246.03;5576982;31;34281;-70
2022/05/31 14:53:37;;;;;;;3.72;2.25;;;;;;;35.15;22.94;100247.03;5590181;31;33993;-69
2022/05/31 14:56:42;;;;;;;5.93;1.60;;;;;;;34.78;24.57;100244.03;5589816;31;33876;-69
2022/05/31 14:59:46;;;;;;;2.55;1.33;;;;;;;34.47;24.03;100248.97;5589998;31;34588;-69
2022/05/31 15:02:49;;;;;;;3.78;1.50;;;;;;;35.17;23.12;100244.78;5589869;31;34249;-69
2022/05/31 15:06:06;;;;;;;1.83;1.40;;;;;;;34.68;23.99;100238.06;5589891;31;33872;-69